DON PEDRO RESERVOIR (DNP)

Elevation: 830' · TUOLUMNE R basin · Operator: Turlock Irrigation District

Provisional data, subject to change.
Query executed Wednesday at 17:55:19   clock

Select a sensor type for a plot of data.
Note: Reservoir Flows are daily averages.

Earlier

Date RES ELE    STORAGE    RES CHG    TOC STO    ABV TOC    OUTFLOW    INFLOW    PPT INC   
 FEET   AF   AF   AF   AF   CFS   CFS   INCHES  
03/17/2014 738.07 1079562 -- 1690000 -610438 163 569 0.00
03/18/2014 738.05 1079562 -- 1690000 -610438 534 534 0.00
03/19/2014 738.15 1080367 805 1690000 -609633 164 569 0.00
03/20/2014 738.20 1080367 r 0 1690000 -609633 163 163 0.00
03/21/2014 738.40 1081979 1612 1690000 -- 163 975 0.00
03/22/2014 738.54 1082785 -- 1690000 -609800 165 571 0.00
03/23/2014 738.71 1084399 -- 1690000 -605601 162 976 0.00
03/24/2014 738.79 1085207 -- 1690000 -603985 394 802 0.00
03/25/2014 738.48 1082785 -- 1690000 -607215 1419 198 0.00
03/26/2014 738.37 1081979 -- 1690000 -608021 1044 637 0.00
03/27/2014 738.35 1081173 -- 1690000 -608827 550 144 0.00
03/28/2014 738.42 1081979 -- 1690000 -607215 165 572 0.00
03/29/2014 738.53 1082785 -- 1690000 -606408 164 570 0.00
03/30/2014 738.63 1083592 -- 1690000 -606408 164 571 0.00
03/31/2014 738.65 1083592 -- 1690000 -606408 451 451 0.00
04/01/2014 738.81 1085207 -- 1690000 -604793 486 1300 0.00
04/02/2014 738.91 1086015 -- 1690000 -603985 677 1084 0.00
04/03/2014 739.00 1086824 -- 1690000 -603176 780 1188 0.00
04/04/2014 739.11 1087633 -- 1690000 -601558 398 806 0.00
04/05/2014 739.28 1089252 -- 1690000 -600343 242 1058 0.00
04/06/2014 739.41 1090062 -- 1690000 -599938 340 749 0.00
04/07/2014 739.53 1090873 -- 1690000 -599127 585 994 0.00
04/08/2014 739.57 1091684 -- 1690000 -598316 723 1132 0.00
04/09/2014 739.76 1093307 -- 1690000 -596693 378 1196 0.00
04/10/2014 739.99 1094900 -- 1690000 -595100 300 1133 0.00
04/11/2014 740.20 1096528 -- 1690000 -- 400 810 0.00
04/12/2014 740.38 1098157 -- 1690000 -591436 481 1303 0.00
04/13/2014 740.47 1098972 -- 1690000 -590213 1018 1429 0.00
04/14/2014 740.46 1098972 -- 1690000 -591028 1352 1352 0.00
04/15/2014 740.38 1098157 -- 1690000 -591843 1252 841 0.00
04/16/2014 -- -- -- -- -- -- -- --

Later | Latest

Warning! This data is preliminary and subject to revision.

Download Data Now Download Data Now | Show DNP Map | Plot DNP Data | 1 Month DNP Data | Real-Time DNP Data | DNP Info